Flight Track Log - Related Links

Times and Time Zones

All times are in EDT time to prevent confusion due to time zone crossing. See the AAY894 flight status page for this flight to view local times or setup timezone preferences in your user account.


Time Position Orientation Groundspeed Altitude Reporting Facility
EDT Latitude Longitude Course Direction KTS MPH feet Rate Location/Type
Sun 08:16:50 AM 27.9333 -82.6833 24° Northeast 166 191 800  Level Tampa TRACON
Sun 08:18:08 AM 27.9667 -82.6667 24° Northeast 167 192 3,100 1,609 Climbing Tampa TRACON
Sun 08:19:08 AM 28.0167 -82.6500 16° North 251 289 4,500 1,950 Climbing Tampa TRACON
Sun 08:20:08 AM 28.1000 -82.6500 360° North 279 321 7,000 2,030 Climbing Tampa TRACON
Sun 08:22:26 AM 28.2811 -82.6497 360° North 299 344 11,200 1,667 Climbing Jacksonville Center
Sun 08:23:26 AM 28.3875 -82.6400 North 335 386 12,500 2,100 Climbing Jacksonville Center
Sun 08:24:26 AM 28.4981 -82.6397 360° North 372 428 15,400 2,550 Climbing Jacksonville Center
Sun 08:25:26 AM 28.6108 -82.6347 North 393 452 17,600 1,800 Climbing Jacksonville Center
Sun 08:26:26 AM 28.7278 -82.6297 North 406 467 19,000 1,450 Climbing Jacksonville Center
Sun 08:27:26 AM 28.8467 -82.6247 North 412 474 20,500 1,500 Climbing Jacksonville Center
Sun 08:28:26 AM 28.9697 -82.6172 North 424 488 22,000 1,550 Climbing Jacksonville Center
Sun 08:29:26 AM 29.0950 -82.6075 North 439 505 23,600 1,500 Climbing Jacksonville Center
Sun 08:30:26 AM 29.2181 -82.6094 359° North 439 505 25,000 2,100 Climbing Jacksonville Center
Sun 08:31:26 AM 29.3414 -82.5994 North 439 505 27,800 1,950 Climbing Jacksonville Center
Sun 08:32:26 AM 29.4728 -82.5967 North 433 498 28,900 1,200 Climbing Jacksonville Center
Sun 08:33:26 AM 29.5919 -82.5942 North 433 498 30,200 1,050 Climbing Jacksonville Center
Sun 08:34:26 AM 29.7108 -82.5842 North 428 493 31,000 397 Climbing Jacksonville Center
Sun 08:35:27 AM 29.8297 -82.5814 North 422 486 31,000  Level Jacksonville Center
Sun 08:36:26 AM 29.9467 -82.5739 North 417 480 31,000  Level Jacksonville Center
Sun 08:37:26 AM 30.0636 -82.5758 359° North 417 480 31,000  Level Jacksonville Center
Sun 08:38:26 AM 30.1806 -82.5681 North 417 480 31,000  Level Jacksonville Center
Sun 08:39:26 AM 30.2994 -82.5653 North 417 480 31,000  Level Jacksonville Center
Sun 08:40:26 AM 30.4144 -82.5578 North 417 480 31,000  Level Jacksonville Center
Sun 08:41:26 AM 30.5292 -82.5525 North 417 480 31,000  Level Jacksonville Center
Sun 08:42:26 AM 30.6481 -82.5472 North 417 480 31,000  Level Jacksonville Center
Sun 08:43:26 AM 30.7650 -82.5444 North 422 486 31,000  Level Jacksonville Center
Sun 08:44:26 AM 30.8800 -82.5392 North 422 486 31,000  Level Jacksonville Center
Sun 08:45:26 AM 30.9967 -82.5364 North 422 486 31,000  Level Jacksonville Center
Sun 08:46:26 AM 31.1158 -82.5261 North 422 486 31,000  Level Jacksonville Center
Sun 08:47:26 AM 31.2328 -82.5256 360° North 417 480 31,000  Level Jacksonville Center
Sun 08:48:26 AM 31.3517 -82.5181 North 417 480 31,000  Level Jacksonville Center
Sun 08:50:44 AM 31.6222 -82.4928 North 420 483 31,000  Level Atlanta Center
Sun 08:51:44 AM 31.7408 -82.4783 North 420 483 31,000  Level Atlanta Center
Sun 08:52:44 AM 31.8594 -82.4567 North 427 491 31,000  Level Atlanta Center
Sun 08:53:44 AM 31.9658 -82.4453 North 427 491 31,000  Level Atlanta Center
Sun 08:54:44 AM 32.0803 -82.4211 10° North 427 491 31,000  Level Atlanta Center
Sun 08:55:44 AM 32.1950 -82.4092 North 421 484 31,000  Level Atlanta Center
Sun 08:56:44 AM 32.3094 -82.3850 10° North 416 479 31,000  Level Atlanta Center
Sun 08:57:44 AM 32.4283 -82.3681 North 421 484 31,000  Level Atlanta Center
Sun 08:58:44 AM 32.5469 -82.3508 North 421 484 31,000  Level Atlanta Center
Sun 08:59:44 AM 32.6636 -82.3289 North 427 491 31,000  Level Atlanta Center
Sun 09:00:44 AM 32.7803 -82.3119 North 422 486 31,000  Level Atlanta Center
Sun 09:01:44 AM 32.8969 -82.2947 North 422 486 31,000  Level Atlanta Center
Sun 09:02:44 AM 33.0136 -82.2775 North 422 486 31,000  Level Atlanta Center
Sun 09:03:44 AM 33.1322 -82.2553 North 427 491 31,000  Level Atlanta Center
Sun 09:04:44 AM 33.2611 -82.2328 North 427 491 31,000  Level Atlanta Center
Sun 09:05:44 AM 33.3800 -82.2153 North 427 491 31,000  Level Atlanta Center
Sun 09:06:44 AM 33.5008 -82.1953 North 427 491 31,000  Level Atlanta Center
Sun 09:07:44 AM 33.6194 -82.1753 North 427 491 31,000  Level Atlanta Center
Sun 09:08:44 AM 33.7400 -82.1528 North 427 491 31,000  Level Atlanta Center
Sun 09:09:44 AM 33.8589 -82.1350 North 427 491 31,000  Level Atlanta Center
Sun 09:10:44 AM 33.9775 -82.1150 North 427 491 31,000  Level Atlanta Center
Sun 09:11:44 AM 34.0961 -82.0922 North 427 491 31,000  Level Atlanta Center
Sun 09:12:44 AM 34.2022 -82.0747 North 427 491 31,000  Level Atlanta Center
Sun 09:13:44 AM 34.3208 -82.0594 North 427 491 31,000  Level Atlanta Center
Sun 09:14:44 AM 34.4417 -82.0339 10° North 427 491 31,000  Level Atlanta Center
Sun 09:15:44 AM 34.5581 -82.0133 North 427 491 31,000  Level Atlanta Center
Sun 09:16:44 AM 34.6767 -81.9903 North 427 491 31,000  Level Atlanta Center
Sun 09:17:44 AM 34.7953 -81.9722 North 427 491 31,000  Level Atlanta Center
Sun 09:18:44 AM 34.9264 -81.9514 North 427 491 31,000  Level Atlanta Center
Sun 09:19:44 AM 35.0428 -81.9281 North 427 491 31,000  Level Atlanta Center
Sun 09:20:44 AM 35.1633 -81.8894 15° North 427 491 31,000  Level Atlanta Center
Sun 09:21:44 AM 35.2797 -81.8636 10° North 427 491 31,000  Level Atlanta Center
Sun 09:22:44 AM 35.4000 -81.8272 14° North 427 491 31,000  Level Atlanta Center
Sun 09:23:44 AM 35.5183 -81.7958 12° North 427 491 31,000  Level Atlanta Center
Sun 09:24:44 AM 35.6392 -81.7875 North 427 491 31,000  Level Atlanta Center
Sun 09:25:44 AM 35.7497 -81.7794 North 427 491 31,000  Level Atlanta Center
Sun 09:26:44 AM 35.8683 -81.7708 North 422 486 31,000  Level Atlanta Center
Sun 09:27:44 AM 35.9892 -81.7675 North 422 486 31,000  Level Atlanta Center
Sun 09:28:44 AM 36.1094 -81.7256 16° North 422 486 31,000  Level Atlanta Center
Sun 09:30:47 AM 36.3569 -81.6386 16° North 445 512 31,000  Level Indianapolis Center
Sun 09:31:48 AM 36.4758 -81.5992 15° North 445 512 31,000  Level Indianapolis Center
Sun 09:32:50 AM 36.5956 -81.5544 17° North 445 512 31,000  Level Indianapolis Center
Sun 09:33:51 AM 36.7292 -81.5097 15° North 448 516 31,000  Level Indianapolis Center
Sun 09:34:53 AM 36.8456 -81.4617 18° North 451 519 31,000  Level Indianapolis Center
Sun 09:35:55 AM 36.9622 -81.4244 14° North 448 516 31,000  Level Indianapolis Center
Sun 09:36:56 AM 37.0961 -81.3722 17° North 449 517 31,000  Level Indianapolis Center
Sun 09:37:58 AM 37.2181 -81.3322 15° North 450 518 31,000  Level Indianapolis Center
Sun 09:39:00 AM 37.3386 -81.2839 18° North 450 518 31,000  Level Indianapolis Center
Sun 09:40:01 AM 37.4578 -81.2442 15° North 451 519 31,000  Level Indianapolis Center
Sun 09:41:03 AM 37.5994 -81.1864 18° North 454 522 31,000  Level Indianapolis Center
Sun 09:42:05 AM 37.7197 -81.1472 14° North 456 525 31,000  Level Indianapolis Center
Sun 09:43:07 AM 37.8506 -81.1003 16° North 456 525 31,000  Level Indianapolis Center
Sun 09:44:08 AM 37.9733 -81.0725 10° North 455 524 31,000  Level Indianapolis Center
Sun 09:45:10 AM 38.0956 -81.0283 16° North 454 522 31,000  Level Indianapolis Center
Sun 09:46:12 AM 38.2186 -81.0000 10° North 454 522 31,000  Level Indianapolis Center
Sun 09:47:13 AM 38.3408 -80.9586 15° North 454 522 31,000  Level Indianapolis Center
Sun 09:48:15 AM 38.4892 -80.9217 11° North 454 522 31,000  Level Indianapolis Center
Sun 09:49:17 AM 38.6125 -80.8783 15° North 461 531 31,000  Level Indianapolis Center
Sun 09:50:19 AM 38.7364 -80.8475 11° North 460 529 31,000  Level Indianapolis Center
Sun 09:51:20 AM 38.8603 -80.8053 15° North 460 529 31,000  Level Indianapolis Center
Sun 09:52:22 AM 38.9839 -80.7758 10° North 458 527 31,000  Level Indianapolis Center
Sun 09:53:24 AM 39.1075 -80.7325 15° North 457 526 31,000  Level Indianapolis Center
Sun 09:54:26 AM 39.2567 -80.6944 11° North 457 526 31,000  Level Indianapolis Center
Sun 09:55:27 AM 39.3794 -80.6450 17° North 458 527 31,000  Level Indianapolis Center
Sun 09:56:29 AM 39.5031 -80.5986 16° North 464 534 31,000  Level Indianapolis Center
Sun 09:57:31 AM 39.6253 -80.5483 18° North 461 531 31,000  Level Indianapolis Center
Sun 09:58:33 AM 39.7467 -80.4944 19° North 462 532 31,000  Level Indianapolis Center
Sun 09:59:35 AM 39.8689 -80.4456 17° North 462 532 31,000  Level Indianapolis Center
Sun 10:00:36 AM 40.0056 -80.3847 19° North 461 531 31,000  Level Indianapolis Center
Sun 10:01:38 AM 40.1369 -80.3292 18° North 461 531 31,000  Level Indianapolis Center
Sun 10:02:40 AM 40.2511 -80.2781 19° North 461 531 31,000  Level Indianapolis Center
Sun 10:03:42 AM 40.3758 -80.2275 17° North 462 532 31,000  Level Indianapolis Center
Sun 10:04:57 AM 40.5314 -80.1628 18° North 473 544 31,000  Level Cleveland Center
Sun 10:05:58 AM 40.6592 -80.1450 North 466 536 31,000  Level Cleveland Center
Sun 10:07:00 AM 40.7808 -80.0886 19° North 468 539 31,000 -390 Level Cleveland Center
Sun 10:08:01 AM 40.9253 -80.0264 18° North 470 541 30,200 -878 Descending Cleveland Center
Sun 10:09:03 AM 41.0478 -79.9678 20° North 470 541 29,200 -927 Descending Cleveland Center
Sun 10:10:04 AM 41.1775 -79.9058 20° North 473 544 28,300 -934 Descending Cleveland Center
Sun 10:11:05 AM 41.2992 -79.8506 19° North 470 541 27,300 -976 Descending Cleveland Center
Sun 10:12:07 AM 41.4167 -79.7892 21° North 459 528 26,300 -976 Descending Cleveland Center
Sun 10:13:08 AM 41.5392 -79.7358 18° North 461 531 25,300 -976 Descending Cleveland Center
Sun 10:14:10 AM 41.6600 -79.6733 21° North 469 540 24,300 -976 Descending Cleveland Center
Sun 10:15:11 AM 41.7856 -79.6203 17° North 469 540 23,300 -1,659 Descending Cleveland Center
Sun 10:16:13 AM 41.9272 -79.5431 22° Northeast 461 531 20,900 -2,000 Descending Cleveland Center
Sun 10:17:14 AM 42.0447 -79.4944 17° North 448 516 19,200 -1,561 Descending Cleveland Center
Sun 10:18:16 AM 42.1569 -79.4333 22° Northeast 440 506 17,700 -1,463 Descending Cleveland Center
Sun 10:19:17 AM 42.2692 -79.3867 17° North 429 494 16,200 -1,415 Descending Cleveland Center
Sun 10:20:19 AM 42.3756 -79.3283 22° Northeast 416 479 14,800 -1,403 Descending Cleveland Center
Sun 10:21:21 AM 42.4981 -79.2725 19° North 414 476 13,300 -1,366 Descending Cleveland Center
Sun 10:22:22 AM 42.5986 -79.2133 23° Northeast 397 457 12,000 -1,268 Descending Cleveland Center
Sun 10:23:24 AM 42.6986 -79.1658 19° North 380 437 10,700 -1,171 Descending Cleveland Center
Sun 10:24:25 AM 42.7958 -79.1122 22° Northeast 352 405 9,600 -1,220 Descending Cleveland Center
Sun 10:25:27 AM 42.8814 -79.0692 20° North 317 365 8,200 -1,742 Descending Cleveland Center
Sun 10:26:29 AM 42.9561 -79.0289 22° Northeast 303 349 6,000 -2,226 Descending Cleveland Center
Sun 10:27:31 AM 43.0258 -78.9731 30° Northeast 286 329 3,600 -1,659 Descending Cleveland Center
Sun 10:28:32 AM 43.0553 -78.8775 67° East 260 299 2,600 -829 Descending Cleveland Center
Sun 10:29:34 AM 43.0906 -78.8314 44° Northeast 200 230 1,900 -581 Descending Cleveland Center
Sun 10:30:36 AM 43.1108 -78.8731 304° West 141 162 1,400 -387 Descending Cleveland Center
Sun 10:31:38 AM 43.1100 -78.9233 269° West 134 154 1,100 -290 Descending Cleveland Center

Login

Don't have an account? Register now (free) for customized features, flight alerts, and more!